sensor_id;sensor_type;location;lat;lon;timestamp;temperature;humidity
3406;DHT22;10008;48.682;9.016;2023-06-04T00:00:43;14.60;99.90
3406;DHT22;10008;48.682;9.016;2023-06-04T00:03:09;14.60;99.90
3406;DHT22;10008;48.682;9.016;2023-06-04T00:05:35;14.50;99.90
3406;DHT22;10008;48.682;9.016;2023-06-04T00:08:01;14.50;99.90
3406;DHT22;10008;48.682;9.016;2023-06-04T00:10:27;14.50;99.90
3406;DHT22;10008;48.682;9.016;2023-06-04T00:12:52;14.50;99.90
3406;DHT22;10008;48.682;9.016;2023-06-04T00:15:18;14.50;99.90
3406;DHT22;10008;48.682;9.016;2023-06-04T00:17:44;14.40;99.90
3406;DHT22;10008;48.682;9.016;2023-06-04T00:20:10;14.30;99.90
3406;DHT22;10008;48.682;9.016;2023-06-04T00:22:37;14.30;99.90
3406;DHT22;10008;48.682;9.016;2023-06-04T00:25:03;14.30;99.90
3406;DHT22;10008;48.682;9.016;2023-06-04T00:27:29;14.20;99.90
3406;DHT22;10008;48.682;9.016;2023-06-04T00:29:55;14.20;99.90
3406;DHT22;10008;48.682;9.016;2023-06-04T00:32:21;14.10;99.90
3406;DHT22;10008;48.682;9.016;2023-06-04T00:34:54;14.10;99.90
3406;DHT22;10008;48.682;9.016;2023-06-04T00:37:22;14.10;99.90
3406;DHT22;10008;48.682;9.016;2023-06-04T00:39:48;14.10;99.90
3406;DHT22;10008;48.682;9.016;2023-06-04T00:42:14;14.10;99.90
3406;DHT22;10008;48.682;9.016;2023-06-04T00:44:40;14.00;99.90
3406;DHT22;10008;48.682;9.016;2023-06-04T00:47:18;13.90;99.90
3406;DHT22;10008;48.682;9.016;2023-06-04T00:49:45;13.90;99.90
3406;DHT22;10008;48.682;9.016;2023-06-04T00:52:14;13.80;99.90
3406;DHT22;10008;48.682;9.016;2023-06-04T00:54:40;13.80;99.90
3406;DHT22;10008;48.682;9.016;2023-06-04T00:57:06;13.80;99.90
3406;DHT22;10008;48.682;9.016;2023-06-04T00:59:36;13.70;99.90
3406;DHT22;10008;48.682;9.016;2023-06-04T01:02:09;13.70;99.90
3406;DHT22;10008;48.682;9.016;2023-06-04T01:04:44;13.70;99.90
3406;DHT22;10008;48.682;9.016;2023-06-04T01:07:14;13.60;99.90
3406;DHT22;10008;48.682;9.016;2023-06-04T01:09:41;13.50;99.90
3406;DHT22;10008;48.682;9.016;2023-06-04T01:12:07;13.50;99.90
3406;DHT22;10008;48.682;9.016;2023-06-04T01:14:33;13.50;99.90
3406;DHT22;10008;48.682;9.016;2023-06-04T01:16:59;13.40;99.90
3406;DHT22;10008;48.682;9.016;2023-06-04T01:22:44;13.40;99.90
3406;DHT22;10008;48.682;9.016;2023-06-04T01:27:50;13.40;99.90
3406;DHT22;10008;48.682;9.016;2023-06-04T01:30:21;13.40;99.90
3406;DHT22;10008;48.682;9.016;2023-06-04T01:32:48;13.30;99.90
3406;DHT22;10008;48.682;9.016;2023-06-04T01:35:14;13.20;99.90
3406;DHT22;10008;48.682;9.016;2023-06-04T01:37:40;13.10;99.90
3406;DHT22;10008;48.682;9.016;2023-06-04T01:40:06;13.10;99.90
3406;DHT22;10008;48.682;9.016;2023-06-04T01:42:34;13.00;99.90
3406;DHT22;10008;48.682;9.016;2023-06-04T01:44:59;12.90;99.90
3406;DHT22;10008;48.682;9.016;2023-06-04T01:47:25;12.90;99.90
3406;DHT22;10008;48.682;9.016;2023-06-04T01:49:51;12.90;99.90
3406;DHT22;10008;48.682;9.016;2023-06-04T01:52:16;12.90;99.90
3406;DHT22;10008;48.682;9.016;2023-06-04T01:54:42;12.80;99.90
3406;DHT22;10008;48.682;9.016;2023-06-04T01:57:08;12.80;99.90
3406;DHT22;10008;48.682;9.016;2023-06-04T01:59:38;12.90;99.90
3406;DHT22;10008;48.682;9.016;2023-06-04T02:02:04;12.80;99.90
3406;DHT22;10008;48.682;9.016;2023-06-04T02:04:30;12.80;99.90
3406;DHT22;10008;48.682;9.016;2023-06-04T02:06:56;12.80;99.90
3406;DHT22;10008;48.682;9.016;2023-06-04T02:09:25;12.70;99.90
3406;DHT22;10008;48.682;9.016;2023-06-04T02:11:51;12.60;99.90
3406;DHT22;10008;48.682;9.016;2023-06-04T02:14:17;12.60;99.90
3406;DHT22;10008;48.682;9.016;2023-06-04T02:16:43;12.60;99.90
3406;DHT22;10008;48.682;9.016;2023-06-04T02:19:08;12.60;99.90
3406;DHT22;10008;48.682;9.016;2023-06-04T02:21:34;12.60;99.90
3406;DHT22;10008;48.682;9.016;2023-06-04T02:24:00;12.60;99.90
3406;DHT22;10008;48.682;9.016;2023-06-04T02:26:26;12.50;99.90
3406;DHT22;10008;48.682;9.016;2023-06-04T02:28:52;12.50;99.90
3406;DHT22;10008;48.682;9.016;2023-06-04T02:31:18;12.60;99.90
3406;DHT22;10008;48.682;9.016;2023-06-04T02:33:43;12.60;99.90
3406;DHT22;10008;48.682;9.016;2023-06-04T02:36:09;12.50;99.90
3406;DHT22;10008;48.682;9.016;2023-06-04T02:38:35;12.40;99.90
3406;DHT22;10008;48.682;9.016;2023-06-04T02:41:01;12.40;99.90
3406;DHT22;10008;48.682;9.016;2023-06-04T02:43:26;12.30;99.90
3406;DHT22;10008;48.682;9.016;2023-06-04T02:45:52;12.30;99.90
3406;DHT22;10008;48.682;9.016;2023-06-04T02:48:18;12.10;99.90
3406;DHT22;10008;48.682;9.016;2023-06-04T02:50:44;12.20;99.90
3406;DHT22;10008;48.682;9.016;2023-06-04T02:53:09;12.20;99.90
3406;DHT22;10008;48.682;9.016;2023-06-04T02:55:35;12.20;99.90
3406;DHT22;10008;48.682;9.016;2023-06-04T02:58:01;12.20;99.90
3406;DHT22;10008;48.682;9.016;2023-06-04T03:00:28;12.20;99.90
3406;DHT22;10008;48.682;9.016;2023-06-04T03:02:54;12.10;99.90
3406;DHT22;10008;48.682;9.016;2023-06-04T03:05:26;12.10;99.90
3406;DHT22;10008;48.682;9.016;2023-06-04T03:07:52;12.10;99.90
3406;DHT22;10008;48.682;9.016;2023-06-04T03:10:19;12.10;99.90
3406;DHT22;10008;48.682;9.016;2023-06-04T03:12:45;12.00;99.90
3406;DHT22;10008;48.682;9.016;2023-06-04T03:15:11;12.00;99.90
3406;DHT22;10008;48.682;9.016;2023-06-04T03:17:37;11.90;99.90
3406;DHT22;10008;48.682;9.016;2023-06-04T03:20:03;11.90;99.90
3406;DHT22;10008;48.682;9.016;2023-06-04T03:22:32;11.80;99.90
3406;DHT22;10008;48.682;9.016;2023-06-04T03:25:02;11.70;99.90
3406;DHT22;10008;48.682;9.016;2023-06-04T03:27:29;11.70;99.90
3406;DHT22;10008;48.682;9.016;2023-06-04T03:29:55;11.60;99.90
3406;DHT22;10008;48.682;9.016;2023-06-04T03:32:21;11.60;99.90
3406;DHT22;10008;48.682;9.016;2023-06-04T03:34:47;11.70;99.90
3406;DHT22;10008;48.682;9.016;2023-06-04T03:37:13;11.60;99.90
3406;DHT22;10008;48.682;9.016;2023-06-04T03:39:39;11.60;99.90
3406;DHT22;10008;48.682;9.016;2023-06-04T03:42:07;11.60;99.90
3406;DHT22;10008;48.682;9.016;2023-06-04T03:44:34;11.60;99.90
3406;DHT22;10008;48.682;9.016;2023-06-04T03:46:59;11.60;99.90
3406;DHT22;10008;48.682;9.016;2023-06-04T03:49:26;11.70;99.90
3406;DHT22;10008;48.682;9.016;2023-06-04T03:51:52;11.70;99.90
3406;DHT22;10008;48.682;9.016;2023-06-04T03:54:19;11.70;99.90
3406;DHT22;10008;48.682;9.016;2023-06-04T03:56:47;11.70;99.90
3406;DHT22;10008;48.682;9.016;2023-06-04T03:59:14;11.70;99.90
3406;DHT22;10008;48.682;9.016;2023-06-04T04:01:41;11.60;99.90
3406;DHT22;10008;48.682;9.016;2023-06-04T04:04:07;11.60;99.90
3406;DHT22;10008;48.682;9.016;2023-06-04T04:06:33;11.60;99.90
3406;DHT22;10008;48.682;9.016;2023-06-04T04:08:59;11.60;99.90
3406;DHT22;10008;48.682;9.016;2023-06-04T04:11:25;11.60;99.90
3406;DHT22;10008;48.682;9.016;2023-06-04T04:13:51;11.60;99.90
3406;DHT22;10008;48.682;9.016;2023-06-04T04:16:18;11.70;99.90
3406;DHT22;10008;48.682;9.016;2023-06-04T04:18:43;11.70;99.90
3406;DHT22;10008;48.682;9.016;2023-06-04T04:21:10;11.80;99.90
3406;DHT22;10008;48.682;9.016;2023-06-04T04:23:38;11.80;99.90
3406;DHT22;10008;48.682;9.016;2023-06-04T04:26:08;11.90;99.90
3406;DHT22;10008;48.682;9.016;2023-06-04T04:28:36;12.00;99.90
3406;DHT22;10008;48.682;9.016;2023-06-04T04:31:02;12.10;99.90
3406;DHT22;10008;48.682;9.016;2023-06-04T04:33:30;12.20;99.90
3406;DHT22;10008;48.682;9.016;2023-06-04T04:36:06;12.30;99.90
3406;DHT22;10008;48.682;9.016;2023-06-04T04:38:39;12.30;99.90
3406;DHT22;10008;48.682;9.016;2023-06-04T04:41:05;12.40;99.90
3406;DHT22;10008;48.682;9.016;2023-06-04T04:43:35;12.50;99.90
3406;DHT22;10008;48.682;9.016;2023-06-04T04:46:08;12.60;99.90
3406;DHT22;10008;48.682;9.016;2023-06-04T04:48:35;12.70;99.90
3406;DHT22;10008;48.682;9.016;2023-06-04T04:51:01;12.80;99.90
3406;DHT22;10008;48.682;9.016;2023-06-04T04:53:27;12.90;99.90
3406;DHT22;10008;48.682;9.016;2023-06-04T04:55:53;13.00;99.90
3406;DHT22;10008;48.682;9.016;2023-06-04T04:58:19;13.10;99.90
3406;DHT22;10008;48.682;9.016;2023-06-04T05:00:45;13.10;99.90
3406;DHT22;10008;48.682;9.016;2023-06-04T05:03:13;13.10;99.90
3406;DHT22;10008;48.682;9.016;2023-06-04T05:05:39;13.20;99.90
3406;DHT22;10008;48.682;9.016;2023-06-04T05:08:05;13.30;99.90
3406;DHT22;10008;48.682;9.016;2023-06-04T05:10:35;13.40;99.90
3406;DHT22;10008;48.682;9.016;2023-06-04T05:13:02;13.40;99.90
3406;DHT22;10008;48.682;9.016;2023-06-04T05:15:35;13.50;99.90
3406;DHT22;10008;48.682;9.016;2023-06-04T05:18:02;13.70;99.90
3406;DHT22;10008;48.682;9.016;2023-06-04T05:20:32;13.80;99.90
3406;DHT22;10008;48.682;9.016;2023-06-04T05:23:01;14.00;99.90
3406;DHT22;10008;48.682;9.016;2023-06-04T05:25:27;14.20;99.90
3406;DHT22;10008;48.682;9.016;2023-06-04T05:27:56;14.30;99.90
3406;DHT22;10008;48.682;9.016;2023-06-04T05:30:22;14.40;99.90
3406;DHT22;10008;48.682;9.016;2023-06-04T05:32:48;14.60;99.90
3406;DHT22;10008;48.682;9.016;2023-06-04T05:35:18;14.70;99.90
3406;DHT22;10008;48.682;9.016;2023-06-04T05:37:44;14.80;99.90
3406;DHT22;10008;48.682;9.016;2023-06-04T05:40:11;15.00;99.90
3406;DHT22;10008;48.682;9.016;2023-06-04T05:42:38;15.00;99.90
3406;DHT22;10008;48.682;9.016;2023-06-04T05:45:05;15.10;99.90
3406;DHT22;10008;48.682;9.016;2023-06-04T05:47:34;15.10;98.80
3406;DHT22;10008;48.682;9.016;2023-06-04T05:49:59;15.30;98.60
3406;DHT22;10008;48.682;9.016;2023-06-04T05:52:26;15.40;98.50
3406;DHT22;10008;48.682;9.016;2023-06-04T05:54:52;15.60;96.70
3406;DHT22;10008;48.682;9.016;2023-06-04T05:57:18;15.70;96.20
3406;DHT22;10008;48.682;9.016;2023-06-04T05:59:44;15.80;96.60
3406;DHT22;10008;48.682;9.016;2023-06-04T06:02:14;15.90;99.60
3406;DHT22;10008;48.682;9.016;2023-06-04T06:04:41;15.90;99.90
3406;DHT22;10008;48.682;9.016;2023-06-04T06:07:06;16.10;99.90
3406;DHT22;10008;48.682;9.016;2023-06-04T06:09:33;16.40;99.90
3406;DHT22;10008;48.682;9.016;2023-06-04T06:11:59;16.60;99.70
3406;DHT22;10008;48.682;9.016;2023-06-04T06:14:25;17.50;97.30
3406;DHT22;10008;48.682;9.016;2023-06-04T06:16:51;18.50;96.80
3406;DHT22;10008;48.682;9.016;2023-06-04T06:19:18;19.30;91.80
3406;DHT22;10008;48.682;9.016;2023-06-04T06:21:44;20.10;90.00
3406;DHT22;10008;48.682;9.016;2023-06-04T06:24:10;20.40;84.70
3406;DHT22;10008;48.682;9.016;2023-06-04T06:26:36;21.40;83.00
3406;DHT22;10008;48.682;9.016;2023-06-04T06:29:03;22.60;80.10
3406;DHT22;10008;48.682;9.016;2023-06-04T06:31:30;22.70;77.30
3406;DHT22;10008;48.682;9.016;2023-06-04T06:33:56;23.40;74.30
3406;DHT22;10008;48.682;9.016;2023-06-04T06:36:22;23.80;74.70
3406;DHT22;10008;48.682;9.016;2023-06-04T06:38:47;23.80;70.30
3406;DHT22;10008;48.682;9.016;2023-06-04T06:41:13;24.00;70.40
3406;DHT22;10008;48.682;9.016;2023-06-04T06:43:39;24.00;69.20
3406;DHT22;10008;48.682;9.016;2023-06-04T06:46:05;24.60;69.10
3406;DHT22;10008;48.682;9.016;2023-06-04T06:48:31;25.30;67.60
3406;DHT22;10008;48.682;9.016;2023-06-04T06:50:56;25.30;65.30
3406;DHT22;10008;48.682;9.016;2023-06-04T06:53:22;25.40;64.70
3406;DHT22;10008;48.682;9.016;2023-06-04T06:55:48;25.60;62.80
3406;DHT22;10008;48.682;9.016;2023-06-04T06:58:14;25.20;62.00
3406;DHT22;10008;48.682;9.016;2023-06-04T07:00:40;24.70;63.50
3406;DHT22;10008;48.682;9.016;2023-06-04T07:03:06;24.60;64.20
3406;DHT22;10008;48.682;9.016;2023-06-04T07:05:33;25.10;63.50
3406;DHT22;10008;48.682;9.016;2023-06-04T07:07:59;25.30;63.30
3406;DHT22;10008;48.682;9.016;2023-06-04T07:10:26;25.50;61.20
3406;DHT22;10008;48.682;9.016;2023-06-04T07:12:52;26.40;61.50
3406;DHT22;10008;48.682;9.016;2023-06-04T07:15:18;26.20;60.00
3406;DHT22;10008;48.682;9.016;2023-06-04T07:17:44;27.00;60.30
3406;DHT22;10008;48.682;9.016;2023-06-04T07:20:10;27.30;58.90
3406;DHT22;10008;48.682;9.016;2023-06-04T07:22:36;27.30;59.20
3406;DHT22;10008;48.682;9.016;2023-06-04T07:25:02;27.70;58.30
3406;DHT22;10008;48.682;9.016;2023-06-04T07:27:27;27.90;58.10
3406;DHT22;10008;48.682;9.016;2023-06-04T07:29:53;28.10;57.50
3406;DHT22;10008;48.682;9.016;2023-06-04T07:32:19;28.60;57.00
3406;DHT22;10008;48.682;9.016;2023-06-04T07:34:45;28.50;56.00
3406;DHT22;10008;48.682;9.016;2023-06-04T07:37:10;29.00;55.80
3406;DHT22;10008;48.682;9.016;2023-06-04T07:39:38;29.60;55.70
3406;DHT22;10008;48.682;9.016;2023-06-04T07:42:04;29.70;54.40
3406;DHT22;10008;48.682;9.016;2023-06-04T07:44:31;30.10;53.40
3406;DHT22;10008;48.682;9.016;2023-06-04T07:46:57;29.90;53.10
3406;DHT22;10008;48.682;9.016;2023-06-04T07:49:22;29.50;53.70
3406;DHT22;10008;48.682;9.016;2023-06-04T07:51:48;29.20;53.40
3406;DHT22;10008;48.682;9.016;2023-06-04T07:54:14;29.00;54.20
3406;DHT22;10008;48.682;9.016;2023-06-04T07:56:40;29.50;54.40
3406;DHT22;10008;48.682;9.016;2023-06-04T07:59:05;29.50;53.80
3406;DHT22;10008;48.682;9.016;2023-06-04T08:01:32;29.60;53.70
3406;DHT22;10008;48.682;9.016;2023-06-04T08:03:57;29.90;53.10
3406;DHT22;10008;48.682;9.016;2023-06-04T08:06:24;30.50;53.20
3406;DHT22;10008;48.682;9.016;2023-06-04T08:08:52;30.30;51.90
3406;DHT22;10008;48.682;9.016;2023-06-04T08:11:18;30.30;51.50
3406;DHT22;10008;48.682;9.016;2023-06-04T08:13:44;30.80;51.60
3406;DHT22;10008;48.682;9.016;2023-06-04T08:16:10;30.50;50.90
3406;DHT22;10008;48.682;9.016;2023-06-04T08:18:40;30.50;50.80
3406;DHT22;10008;48.682;9.016;2023-06-04T08:21:09;30.60;50.70
3406;DHT22;10008;48.682;9.016;2023-06-04T08:23:37;30.80;50.20
3406;DHT22;10008;48.682;9.016;2023-06-04T08:26:03;30.50;49.60
3406;DHT22;10008;48.682;9.016;2023-06-04T08:28:28;30.20;50.10
3406;DHT22;10008;48.682;9.016;2023-06-04T08:30:54;30.30;50.00
3406;DHT22;10008;48.682;9.016;2023-06-04T08:33:20;30.30;49.30
3406;DHT22;10008;48.682;9.016;2023-06-04T08:35:46;30.80;49.70
3406;DHT22;10008;48.682;9.016;2023-06-04T08:38:12;31.10;48.20
3406;DHT22;10008;48.682;9.016;2023-06-04T08:40:37;31.40;47.10
3406;DHT22;10008;48.682;9.016;2023-06-04T08:43:04;31.60;47.20
3406;DHT22;10008;48.682;9.016;2023-06-04T08:45:32;31.60;47.20
3406;DHT22;10008;48.682;9.016;2023-06-04T08:47:59;31.80;47.60
3406;DHT22;10008;48.682;9.016;2023-06-04T08:50:26;32.00;45.80
3406;DHT22;10008;48.682;9.016;2023-06-04T08:52:53;31.70;45.30
3406;DHT22;10008;48.682;9.016;2023-06-04T08:55:20;31.50;44.80
3406;DHT22;10008;48.682;9.016;2023-06-04T08:57:49;31.60;46.40
3406;DHT22;10008;48.682;9.016;2023-06-04T09:00:16;31.60;46.50
3406;DHT22;10008;48.682;9.016;2023-06-04T09:02:42;31.60;45.60
3406;DHT22;10008;48.682;9.016;2023-06-04T09:05:10;31.60;46.30
3406;DHT22;10008;48.682;9.016;2023-06-04T09:07:39;31.20;46.80
3406;DHT22;10008;48.682;9.016;2023-06-04T09:10:07;31.60;45.90
3406;DHT22;10008;48.682;9.016;2023-06-04T09:12:36;32.00;45.30
3406;DHT22;10008;48.682;9.016;2023-06-04T09:15:03;31.60;44.10
3406;DHT22;10008;48.682;9.016;2023-06-04T09:17:29;31.50;45.70
3406;DHT22;10008;48.682;9.016;2023-06-04T09:19:55;31.20;44.50
3406;DHT22;10008;48.682;9.016;2023-06-04T09:22:31;31.20;45.50
3406;DHT22;10008;48.682;9.016;2023-06-04T09:24:57;31.40;45.90
3406;DHT22;10008;48.682;9.016;2023-06-04T09:27:23;31.70;44.80
3406;DHT22;10008;48.682;9.016;2023-06-04T09:29:55;32.20;44.90
3406;DHT22;10008;48.682;9.016;2023-06-04T09:32:22;32.80;43.70
3406;DHT22;10008;48.682;9.016;2023-06-04T09:34:48;32.60;42.20
3406;DHT22;10008;48.682;9.016;2023-06-04T09:37:15;32.60;43.40
3406;DHT22;10008;48.682;9.016;2023-06-04T09:39:52;33.10;42.90
3406;DHT22;10008;48.682;9.016;2023-06-04T09:42:19;32.60;43.40
3406;DHT22;10008;48.682;9.016;2023-06-04T09:44:45;32.70;42.50
3406;DHT22;10008;48.682;9.016;2023-06-04T09:47:14;32.60;43.30
3406;DHT22;10008;48.682;9.016;2023-06-04T09:49:50;32.50;42.40
3406;DHT22;10008;48.682;9.016;2023-06-04T09:52:17;31.80;43.50
3406;DHT22;10008;48.682;9.016;2023-06-04T09:54:43;32.10;42.80
3406;DHT22;10008;48.682;9.016;2023-06-04T09:57:16;31.80;42.90
3406;DHT22;10008;48.682;9.016;2023-06-04T09:59:45;31.80;43.90
3406;DHT22;10008;48.682;9.016;2023-06-04T10:02:18;32.50;43.50
3406;DHT22;10008;48.682;9.016;2023-06-04T10:04:49;32.80;42.50
3406;DHT22;10008;48.682;9.016;2023-06-04T10:07:17;33.00;41.30
3406;DHT22;10008;48.682;9.016;2023-06-04T10:09:43;32.90;40.90
3406;DHT22;10008;48.682;9.016;2023-06-04T10:12:14;33.10;41.90
3406;DHT22;10008;48.682;9.016;2023-06-04T10:14:54;33.60;42.10
3406;DHT22;10008;48.682;9.016;2023-06-04T10:17:23;33.40;41.60
3406;DHT22;10008;48.682;9.016;2023-06-04T10:19:51;33.80;40.60
3406;DHT22;10008;48.682;9.016;2023-06-04T10:22:20;33.90;41.10
3406;DHT22;10008;48.682;9.016;2023-06-04T10:24:46;33.40;39.90
3406;DHT22;10008;48.682;9.016;2023-06-04T10:27:12;33.40;41.60
3406;DHT22;10008;48.682;9.016;2023-06-04T10:29:39;33.80;41.00
3406;DHT22;10008;48.682;9.016;2023-06-04T10:32:05;33.80;40.30
3406;DHT22;10008;48.682;9.016;2023-06-04T10:34:31;34.20;40.40
3406;DHT22;10008;48.682;9.016;2023-06-04T10:36:58;34.20;40.50
3406;DHT22;10008;48.682;9.016;2023-06-04T10:39:32;34.70;39.90
3406;DHT22;10008;48.682;9.016;2023-06-04T10:42:02;35.10;38.70
3406;DHT22;10008;48.682;9.016;2023-06-04T10:44:30;34.50;38.90
3406;DHT22;10008;48.682;9.016;2023-06-04T10:46:57;34.20;39.40
3406;DHT22;10008;48.682;9.016;2023-06-04T10:49:30;34.70;39.40
3406;DHT22;10008;48.682;9.016;2023-06-04T10:52:10;35.00;38.90
3406;DHT22;10008;48.682;9.016;2023-06-04T10:54:35;35.40;38.20
3406;DHT22;10008;48.682;9.016;2023-06-04T10:57:10;35.70;38.80
3406;DHT22;10008;48.682;9.016;2023-06-04T10:59:37;35.70;38.20
3406;DHT22;10008;48.682;9.016;2023-06-04T11:02:06;35.80;36.60
3406;DHT22;10008;48.682;9.016;2023-06-04T11:04:32;35.90;36.40
3406;DHT22;10008;48.682;9.016;2023-06-04T11:07:02;35.60;36.60
3406;DHT22;10008;48.682;9.016;2023-06-04T11:09:35;35.70;38.40
3406;DHT22;10008;48.682;9.016;2023-06-04T11:12:03;35.10;36.30
3406;DHT22;10008;48.682;9.016;2023-06-04T11:14:30;34.60;37.90
3406;DHT22;10008;48.682;9.016;2023-06-04T11:16:56;33.30;38.70
3406;DHT22;10008;48.682;9.016;2023-06-04T11:19:22;32.20;41.00
3406;DHT22;10008;48.682;9.016;2023-06-04T11:21:48;31.30;41.90
3406;DHT22;10008;48.682;9.016;2023-06-04T11:24:16;31.10;44.20
3406;DHT22;10008;48.682;9.016;2023-06-04T11:26:41;32.20;41.70
3406;DHT22;10008;48.682;9.016;2023-06-04T11:29:10;33.10;40.50
3406;DHT22;10008;48.682;9.016;2023-06-04T11:31:46;34.30;39.40
3406;DHT22;10008;48.682;9.016;2023-06-04T11:34:24;34.30;38.30
3406;DHT22;10008;48.682;9.016;2023-06-04T11:36:50;34.30;38.10
3406;DHT22;10008;48.682;9.016;2023-06-04T11:39:19;35.00;38.10
3406;DHT22;10008;48.682;9.016;2023-06-04T11:41:45;35.40;36.90
3406;DHT22;10008;48.682;9.016;2023-06-04T11:44:12;35.30;36.90
3406;DHT22;10008;48.682;9.016;2023-06-04T11:46:44;35.80;36.60
3406;DHT22;10008;48.682;9.016;2023-06-04T11:49:17;36.20;36.10
3406;DHT22;10008;48.682;9.016;2023-06-04T11:51:52;36.60;35.00
3406;DHT22;10008;48.682;9.016;2023-06-04T11:54:20;36.20;35.60
3406;DHT22;10008;48.682;9.016;2023-06-04T11:56:49;36.30;34.90
3406;DHT22;10008;48.682;9.016;2023-06-04T11:59:17;35.70;34.20
3406;DHT22;10008;48.682;9.016;2023-06-04T12:01:44;35.60;35.10
3406;DHT22;10008;48.682;9.016;2023-06-04T12:04:12;36.10;35.20
3406;DHT22;10008;48.682;9.016;2023-06-04T12:06:39;35.90;35.00
3406;DHT22;10008;48.682;9.016;2023-06-04T12:09:23;35.30;35.10
3406;DHT22;10008;48.682;9.016;2023-06-04T12:11:49;35.60;36.00
3406;DHT22;10008;48.682;9.016;2023-06-04T12:14:18;35.60;35.30
3406;DHT22;10008;48.682;9.016;2023-06-04T12:17:10;34.40;36.30
3406;DHT22;10008;48.682;9.016;2023-06-04T12:19:54;34.10;37.60
3406;DHT22;10008;48.682;9.016;2023-06-04T12:22:20;33.90;36.90
3406;DHT22;10008;48.682;9.016;2023-06-04T12:24:53;33.60;38.40
3406;DHT22;10008;48.682;9.016;2023-06-04T12:27:21;33.70;37.50
3406;DHT22;10008;48.682;9.016;2023-06-04T12:30:03;33.40;38.10
3406;DHT22;10008;48.682;9.016;2023-06-04T12:32:29;33.80;37.20
3406;DHT22;10008;48.682;9.016;2023-06-04T12:34:55;34.60;36.90
3406;DHT22;10008;48.682;9.016;2023-06-04T12:37:24;35.40;36.70
3406;DHT22;10008;48.682;9.016;2023-06-04T12:39:56;35.10;35.70
3406;DHT22;10008;48.682;9.016;2023-06-04T12:42:22;33.50;36.90
3406;DHT22;10008;48.682;9.016;2023-06-04T12:44:49;32.30;38.70
3406;DHT22;10008;48.682;9.016;2023-06-04T12:47:14;32.30;38.60
3406;DHT22;10008;48.682;9.016;2023-06-04T12:49:42;32.60;38.20
3406;DHT22;10008;48.682;9.016;2023-06-04T12:52:08;33.10;38.00
3406;DHT22;10008;48.682;9.016;2023-06-04T12:54:34;33.20;37.90
3406;DHT22;10008;48.682;9.016;2023-06-04T12:57:00;33.60;37.50
3406;DHT22;10008;48.682;9.016;2023-06-04T12:59:26;33.80;38.00
3406;DHT22;10008;48.682;9.016;2023-06-04T13:01:55;33.60;36.90
3406;DHT22;10008;48.682;9.016;2023-06-04T13:04:21;32.60;36.40
3406;DHT22;10008;48.682;9.016;2023-06-04T13:06:46;31.40;38.60
3406;DHT22;10008;48.682;9.016;2023-06-04T13:09:13;30.60;40.00
3406;DHT22;10008;48.682;9.016;2023-06-04T13:11:43;30.60;39.80
3406;DHT22;10008;48.682;9.016;2023-06-04T13:14:10;31.00;40.10
3406;DHT22;10008;48.682;9.016;2023-06-04T13:16:38;31.50;39.60
3406;DHT22;10008;48.682;9.016;2023-06-04T13:19:03;30.50;39.30
3406;DHT22;10008;48.682;9.016;2023-06-04T13:21:29;30.10;40.90
3406;DHT22;10008;48.682;9.016;2023-06-04T13:23:55;30.00;40.50
3406;DHT22;10008;48.682;9.016;2023-06-04T13:26:22;30.30;40.20
3406;DHT22;10008;48.682;9.016;2023-06-04T13:28:48;31.00;39.50
3406;DHT22;10008;48.682;9.016;2023-06-04T13:31:14;31.20;38.80
3406;DHT22;10008;48.682;9.016;2023-06-04T13:33:39;30.90;38.40
3406;DHT22;10008;48.682;9.016;2023-06-04T13:36:07;30.40;38.00
3406;DHT22;10008;48.682;9.016;2023-06-04T13:38:33;30.50;38.40
3406;DHT22;10008;48.682;9.016;2023-06-04T13:40:59;30.60;38.10
3406;DHT22;10008;48.682;9.016;2023-06-04T13:43:25;30.90;38.80
3406;DHT22;10008;48.682;9.016;2023-06-04T13:45:50;31.00;38.50
3406;DHT22;10008;48.682;9.016;2023-06-04T13:48:16;30.70;38.60
3406;DHT22;10008;48.682;9.016;2023-06-04T13:50:42;29.80;38.70
3406;DHT22;10008;48.682;9.016;2023-06-04T13:53:08;29.60;39.30
3406;DHT22;10008;48.682;9.016;2023-06-04T13:55:34;30.10;39.40
3406;DHT22;10008;48.682;9.016;2023-06-04T13:58:00;30.20;39.00
3406;DHT22;10008;48.682;9.016;2023-06-04T14:00:26;30.30;39.80
3406;DHT22;10008;48.682;9.016;2023-06-04T14:02:53;29.70;39.10
3406;DHT22;10008;48.682;9.016;2023-06-04T14:05:21;29.70;40.40
3406;DHT22;10008;48.682;9.016;2023-06-04T14:07:46;29.90;40.00
3406;DHT22;10008;48.682;9.016;2023-06-04T14:10:12;30.20;39.80
3406;DHT22;10008;48.682;9.016;2023-06-04T14:12:38;30.30;40.20
3406;DHT22;10008;48.682;9.016;2023-06-04T14:15:06;30.10;40.50
3406;DHT22;10008;48.682;9.016;2023-06-04T14:17:32;29.90;40.00
3406;DHT22;10008;48.682;9.016;2023-06-04T14:19:59;29.90;40.70
3406;DHT22;10008;48.682;9.016;2023-06-04T14:22:25;29.60;40.30
3406;DHT22;10008;48.682;9.016;2023-06-04T14:24:51;29.30;40.50
3406;DHT22;10008;48.682;9.016;2023-06-04T14:27:17;28.90;40.90
3406;DHT22;10008;48.682;9.016;2023-06-04T14:29:42;28.70;41.60
3406;DHT22;10008;48.682;9.016;2023-06-04T14:32:08;28.50;41.80
3406;DHT22;10008;48.682;9.016;2023-06-04T14:34:34;28.50;42.10
3406;DHT22;10008;48.682;9.016;2023-06-04T14:37:00;28.50;41.90
3406;DHT22;10008;48.682;9.016;2023-06-04T14:39:29;28.50;42.10
3406;DHT22;10008;48.682;9.016;2023-06-04T14:41:54;28.50;42.40
3406;DHT22;10008;48.682;9.016;2023-06-04T14:44:20;28.60;41.40
3406;DHT22;10008;48.682;9.016;2023-06-04T14:46:48;28.60;41.70
3406;DHT22;10008;48.682;9.016;2023-06-04T14:49:14;28.30;41.70
3406;DHT22;10008;48.682;9.016;2023-06-04T14:51:39;28.00;42.20
3406;DHT22;10008;48.682;9.016;2023-06-04T14:54:05;27.80;42.50
3406;DHT22;10008;48.682;9.016;2023-06-04T14:56:31;27.20;42.70
3406;DHT22;10008;48.682;9.016;2023-06-04T14:58:58;26.80;43.70
3406;DHT22;10008;48.682;9.016;2023-06-04T15:01:24;26.50;44.00
3406;DHT22;10008;48.682;9.016;2023-06-04T15:03:50;26.80;43.20
3406;DHT22;10008;48.682;9.016;2023-06-04T15:06:16;26.60;43.60
3406;DHT22;10008;48.682;9.016;2023-06-04T15:08:41;26.60;43.80
3406;DHT22;10008;48.682;9.016;2023-06-04T15:11:07;26.70;44.30
3406;DHT22;10008;48.682;9.016;2023-06-04T15:13:33;26.60;44.30
3406;DHT22;10008;48.682;9.016;2023-06-04T15:15:58;26.50;43.90
3406;DHT22;10008;48.682;9.016;2023-06-04T15:18:24;26.50;44.30
3406;DHT22;10008;48.682;9.016;2023-06-04T15:20:50;26.60;44.50
3406;DHT22;10008;48.682;9.016;2023-06-04T15:23:16;26.60;45.00
3406;DHT22;10008;48.682;9.016;2023-06-04T15:25:43;26.60;44.20
3406;DHT22;10008;48.682;9.016;2023-06-04T15:28:09;26.40;44.00
3406;DHT22;10008;48.682;9.016;2023-06-04T15:30:35;26.20;44.80
3406;DHT22;10008;48.682;9.016;2023-06-04T15:33:00;26.10;45.00
3406;DHT22;10008;48.682;9.016;2023-06-04T15:35:27;25.90;44.80
3406;DHT22;10008;48.682;9.016;2023-06-04T15:37:53;25.80;45.10
3406;DHT22;10008;48.682;9.016;2023-06-04T15:40:19;25.60;44.80
3406;DHT22;10008;48.682;9.016;2023-06-04T15:42:45;25.50;44.60
3406;DHT22;10008;48.682;9.016;2023-06-04T15:45:11;25.60;44.60
3406;DHT22;10008;48.682;9.016;2023-06-04T15:47:38;25.60;44.70
3406;DHT22;10008;48.682;9.016;2023-06-04T15:50:04;25.80;44.60